createdAt,value
2023-03-06T00:01:09.745Z,-1.07
2023-03-06T00:03:36.916Z,-1.09
2023-03-06T00:06:04.558Z,-0.96
2023-03-06T00:08:32.185Z,-0.98
2023-03-06T00:10:59.955Z,-0.95
2023-03-06T00:13:30.302Z,-1.03
2023-03-06T00:16:12.162Z,-1.00
2023-03-06T00:18:40.474Z,-1.13
2023-03-06T00:21:08.911Z,-1.16
2023-03-06T00:23:36.656Z,-1.18
2023-03-06T00:26:08.436Z,-1.14
2023-03-06T00:28:36.396Z,-1.14
2023-03-06T00:31:04.121Z,-1.20
2023-03-06T00:33:32.385Z,-1.15
2023-03-06T00:36:00.823Z,-1.16
2023-03-06T00:38:31.857Z,-1.07
2023-03-06T00:41:00.119Z,-1.04
2023-03-06T00:43:27.210Z,-1.08
2023-03-06T00:45:54.828Z,-1.16
2023-03-06T00:48:23.203Z,-1.15
2023-03-06T00:50:50.663Z,-1.17
2023-03-06T00:53:19.180Z,-1.02
2023-03-06T00:55:46.943Z,-1.06
2023-03-06T00:58:14.619Z,-1.03
2023-03-06T01:00:45.096Z,-1.15
2023-03-06T01:03:13.693Z,-1.11
2023-03-06T01:05:41.300Z,-1.16
2023-03-06T01:08:18.269Z,-1.02
2023-03-06T01:10:45.738Z,-1.12
2023-03-06T01:13:14.319Z,-1.10
2023-03-06T01:15:41.820Z,-1.15
2023-03-06T01:18:09.361Z,-1.10
2023-03-06T01:20:37.608Z,-1.03
2023-03-06T01:23:06.050Z,-1.03
2023-03-06T01:25:33.649Z,-0.98
2023-03-06T01:28:01.063Z,-1.00
2023-03-06T01:30:28.457Z,-1.00
2023-03-06T01:32:56.048Z,-1.04
2023-03-06T01:35:23.529Z,-1.01
2023-03-06T01:37:52.028Z,-0.89
2023-03-06T01:40:19.452Z,-1.06
2023-03-06T01:42:49.852Z,-1.05
2023-03-06T01:45:17.242Z,-1.21
2023-03-06T01:47:45.532Z,-1.26
2023-03-06T01:50:13.998Z,-1.33
2023-03-06T01:52:49.787Z,-1.35
2023-03-06T01:55:22.220Z,-1.19
2023-03-06T01:57:55.526Z,-1.13
2023-03-06T02:00:26.311Z,-1.10
2023-03-06T02:02:57.190Z,-1.02
2023-03-06T02:05:25.188Z,-1.06
2023-03-06T02:07:54.943Z,-1.12
2023-03-06T02:10:22.620Z,-1.10
2023-03-06T02:12:52.113Z,-1.13
2023-03-06T02:15:22.966Z,-1.12
2023-03-06T02:17:52.042Z,-1.14
2023-03-06T02:20:51.206Z,-1.14
2023-03-06T02:23:36.800Z,-1.31
2023-03-06T02:26:05.978Z,-1.22
2023-03-06T02:28:33.129Z,-1.25
2023-03-06T02:31:01.749Z,-1.21
2023-03-06T02:33:31.663Z,-1.16
2023-03-06T02:36:10.633Z,-1.26
2023-03-06T02:38:44.961Z,-1.29
2023-03-06T02:41:12.563Z,-1.29
2023-03-06T02:43:41.275Z,-1.30
2023-03-06T02:46:10.098Z,-1.36
2023-03-06T02:48:38.458Z,-1.36
2023-03-06T02:51:07.020Z,-1.38
2023-03-06T02:53:35.460Z,-1.44
2023-03-06T02:56:04.005Z,-1.51
2023-03-06T02:58:31.296Z,-1.55
2023-03-06T03:00:58.723Z,-1.59
2023-03-06T03:03:25.840Z,-1.56
2023-03-06T03:05:53.156Z,-1.55
2023-03-06T03:08:22.986Z,-1.48
2023-03-06T03:10:50.638Z,-1.43
2023-03-06T03:13:19.848Z,-1.45
2023-03-06T03:16:07.424Z,-1.41
2023-03-06T03:18:36.028Z,-1.36
2023-03-06T03:21:08.248Z,-1.30
2023-03-06T03:23:35.728Z,-1.29
2023-03-06T03:26:14.956Z,-1.19
2023-03-06T03:28:42.704Z,-1.17
2023-03-06T03:31:11.532Z,-1.11
2023-03-06T03:33:40.422Z,-1.08
2023-03-06T03:36:08.904Z,-1.10
2023-03-06T03:38:42.406Z,-1.13
2023-03-06T03:41:11.867Z,-1.13
2023-03-06T03:43:40.264Z,-1.16
2023-03-06T03:46:07.777Z,-1.21
2023-03-06T03:48:36.246Z,-1.17
2023-03-06T03:51:09.564Z,-1.15
2023-03-06T03:53:36.562Z,-1.07
2023-03-06T03:56:04.927Z,-1.13
2023-03-06T03:58:33.289Z,-1.21
2023-03-06T04:01:01.306Z,-1.13
2023-03-06T04:03:28.749Z,-1.09
2023-03-06T04:05:58.300Z,-1.12
2023-03-06T04:08:28.510Z,-1.13
2023-03-06T04:10:56.426Z,-1.15
2023-03-06T04:13:25.664Z,-1.22
2023-03-06T04:15:54.736Z,-1.24
2023-03-06T04:18:23.743Z,-1.22
2023-03-06T04:20:53.583Z,-1.19
2023-03-06T04:23:23.208Z,-1.16
2023-03-06T04:25:51.282Z,-1.16
2023-03-06T04:28:18.593Z,-1.16
2023-03-06T04:30:47.243Z,-1.09
2023-03-06T04:33:14.846Z,-1.05
2023-03-06T04:35:42.082Z,-1.08
2023-03-06T04:38:10.711Z,-1.11
2023-03-06T04:40:38.143Z,-1.09
2023-03-06T04:43:06.521Z,-1.15
2023-03-06T04:45:34.609Z,-1.04
2023-03-06T04:48:02.264Z,-1.02
2023-03-06T04:50:32.824Z,-1.06
2023-03-06T04:53:02.000Z,-1.06
2023-03-06T04:55:29.985Z,-1.15
2023-03-06T04:57:58.263Z,-1.06
2023-03-06T05:00:31.984Z,-1.12
2023-03-06T05:03:01.291Z,-1.13
2023-03-06T05:05:30.064Z,-1.05
2023-03-06T05:07:59.534Z,-1.09
2023-03-06T05:10:27.048Z,-1.07
2023-03-06T05:12:54.385Z,-1.03
2023-03-06T05:15:28.002Z,-1.01
2023-03-06T05:17:56.762Z,-1.07
2023-03-06T05:20:25.301Z,-1.02
2023-03-06T05:22:53.666Z,-0.98
2023-03-06T05:25:21.346Z,-0.93
2023-03-06T05:27:49.463Z,-0.92
2023-03-06T05:30:17.269Z,-0.92
2023-03-06T05:32:44.815Z,-0.93
2023-03-06T05:35:22.040Z,-0.85
2023-03-06T05:37:51.380Z,-0.79
2023-03-06T05:40:20.228Z,-0.75
2023-03-06T05:42:48.750Z,-0.68
2023-03-06T05:45:16.325Z,-0.64
2023-03-06T05:47:44.684Z,-0.52
2023-03-06T05:50:14.267Z,-0.44
2023-03-06T05:52:41.907Z,-0.40
2023-03-06T05:55:16.902Z,-0.36
2023-03-06T05:57:45.362Z,-0.33
2023-03-06T06:00:14.296Z,-0.38
2023-03-06T06:02:43.179Z,-0.41
2023-03-06T06:05:12.968Z,-0.41
2023-03-06T06:07:41.181Z,-0.40
2023-03-06T06:10:09.560Z,-0.36
2023-03-06T06:12:37.104Z,-0.30
2023-03-06T06:15:05.002Z,-0.29
2023-03-06T06:17:32.543Z,-0.25
2023-03-06T06:19:59.947Z,-0.21
2023-03-06T06:22:27.433Z,-0.16
2023-03-06T06:24:54.862Z,-0.16
2023-03-06T06:27:22.393Z,-0.16
2023-03-06T06:29:52.960Z,-0.13
2023-03-06T06:32:20.643Z,-0.09
2023-03-06T06:34:48.250Z,-0.08
2023-03-06T06:37:17.863Z,-0.01
2023-03-06T06:39:45.218Z,0.09
2023-03-06T06:42:30.476Z,0.10
2023-03-06T06:45:00.178Z,0.14
2023-03-06T06:47:27.742Z,0.18
2023-03-06T06:49:57.741Z,0.19
2023-03-06T06:52:27.103Z,0.33
2023-03-06T06:54:54.572Z,0.29
2023-03-06T06:57:22.207Z,0.44
2023-03-06T06:59:52.555Z,0.41
2023-03-06T07:02:22.672Z,0.42
2023-03-06T07:05:03.138Z,0.54
2023-03-06T07:07:34.446Z,0.53
2023-03-06T07:10:14.618Z,0.65
2023-03-06T07:12:42.193Z,0.62
2023-03-06T07:15:10.105Z,0.65
2023-03-06T07:17:37.418Z,0.73
2023-03-06T07:20:07.426Z,0.78
2023-03-06T07:22:48.705Z,0.68
2023-03-06T07:25:19.057Z,0.78
2023-03-06T07:27:52.850Z,0.85
2023-03-06T07:30:23.762Z,0.84
2023-03-06T07:33:02.316Z,0.92
2023-03-06T07:35:30.728Z,1.00
2023-03-06T07:37:58.367Z,1.02
2023-03-06T07:40:28.017Z,1.09
2023-03-06T07:43:13.024Z,1.22
2023-03-06T07:45:47.388Z,1.27
2023-03-06T07:48:15.309Z,1.43
2023-03-06T07:50:43.223Z,1.56
2023-03-06T07:53:11.425Z,1.59
2023-03-06T07:55:51.087Z,1.64
2023-03-06T07:58:19.914Z,1.72
2023-03-06T08:00:47.573Z,1.85
2023-03-06T08:03:15.506Z,1.97
2023-03-06T08:05:43.303Z,2.04
2023-03-06T08:08:13.148Z,2.16
2023-03-06T08:10:40.784Z,2.22
2023-03-06T08:13:09.325Z,2.42
2023-03-06T08:15:38.812Z,2.46
2023-03-06T08:18:07.899Z,2.46
2023-03-06T08:20:35.237Z,2.41
2023-03-06T08:23:02.657Z,2.42
2023-03-06T08:25:30.362Z,2.40
2023-03-06T08:27:57.563Z,2.48
2023-03-06T08:30:25.132Z,2.52
2023-03-06T08:32:52.540Z,2.68
2023-03-06T08:35:20.116Z,2.80
2023-03-06T08:37:47.433Z,2.74
2023-03-06T08:40:16.213Z,2.86
2023-03-06T08:42:48.280Z,3.05
2023-03-06T08:45:16.008Z,3.16
2023-03-06T08:47:43.698Z,3.32
2023-03-06T08:50:13.430Z,3.39
2023-03-06T08:52:43.145Z,3.64
2023-03-06T08:55:11.096Z,3.66
2023-03-06T08:57:38.336Z,3.68
2023-03-06T09:00:11.160Z,3.78
2023-03-06T09:02:40.485Z,3.79
2023-03-06T09:05:09.457Z,3.99
2023-03-06T09:07:36.866Z,3.99
2023-03-06T09:10:04.522Z,4.31
2023-03-06T09:12:49.447Z,4.36
2023-03-06T09:15:20.850Z,4.56
2023-03-06T09:17:49.445Z,4.70
2023-03-06T09:20:18.224Z,4.73
2023-03-06T09:22:48.517Z,4.88
2023-03-06T09:25:20.694Z,4.95
2023-03-06T09:27:58.219Z,5.34
2023-03-06T09:30:30.844Z,5.60
2023-03-06T09:32:58.496Z,5.65
2023-03-06T09:35:26.997Z,5.01
2023-03-06T09:37:54.546Z,5.48
2023-03-06T09:40:50.837Z,6.01
2023-03-06T09:43:37.335Z,6.18
2023-03-06T09:46:31.543Z,6.72
2023-03-06T09:49:10.560Z,6.38
2023-03-06T09:51:52.220Z,6.27
2023-03-06T09:54:30.701Z,6.09
2023-03-06T09:56:58.412Z,6.14
2023-03-06T09:59:26.619Z,6.22
2023-03-06T10:02:19.197Z,6.31
2023-03-06T10:04:55.021Z,6.74
2023-03-06T10:07:32.467Z,7.03
2023-03-06T10:10:08.065Z,7.04
2023-03-06T10:12:45.625Z,6.86
2023-03-06T10:15:22.392Z,6.53
2023-03-06T10:17:49.952Z,7.08
2023-03-06T10:20:34.258Z,7.25
2023-03-06T10:23:38.599Z,7.55
2023-03-06T10:26:15.657Z,7.88
2023-03-06T10:28:47.409Z,8.06
2023-03-06T10:31:21.278Z,7.56
2023-03-06T10:33:49.800Z,7.04
2023-03-06T10:36:20.345Z,6.69
2023-03-06T10:38:49.321Z,6.59
2023-03-06T10:41:30.229Z,6.57
2023-03-06T10:44:00.917Z,6.34
2023-03-06T10:46:48.090Z,6.09
2023-03-06T10:49:28.843Z,5.79
2023-03-06T10:52:10.063Z,5.73
2023-03-06T10:54:40.891Z,5.56
2023-03-06T10:57:30.163Z,5.25
2023-03-06T11:00:06.126Z,5.33
2023-03-06T11:02:37.640Z,5.54
2023-03-06T11:05:07.755Z,5.67
2023-03-06T11:07:55.592Z,5.76
2023-03-06T11:10:24.699Z,5.47
2023-03-06T11:13:00.253Z,5.70
2023-03-06T11:15:30.481Z,5.84
2023-03-06T11:18:05.225Z,5.57
2023-03-06T11:20:52.343Z,5.45
2023-03-06T11:23:44.958Z,5.61
2023-03-06T11:26:18.253Z,5.63
2023-03-06T11:29:01.152Z,5.81
2023-03-06T11:31:34.572Z,5.72
2023-03-06T11:34:11.993Z,5.88
2023-03-06T11:36:55.856Z,5.98
2023-03-06T11:39:42.515Z,6.13
2023-03-06T11:42:38.068Z,6.13
2023-03-06T11:45:19.633Z,5.89
2023-03-06T11:47:54.756Z,5.68
2023-03-06T11:50:44.239Z,5.74
2023-03-06T11:53:23.450Z,5.87
2023-03-06T11:55:56.202Z,5.76
2023-03-06T11:58:43.094Z,5.97
2023-03-06T12:01:47.709Z,5.87
2023-03-06T12:04:42.838Z,5.85
2023-03-06T12:07:31.897Z,5.75
2023-03-06T12:10:06.545Z,5.60
2023-03-06T12:12:54.225Z,5.55
2023-03-06T12:15:49.816Z,5.60
2023-03-06T12:18:46.090Z,5.54
2023-03-06T12:21:16.706Z,5.39
2023-03-06T12:23:58.760Z,5.31
2023-03-06T12:27:14.356Z,5.29
2023-03-06T12:30:09.789Z,5.33
2023-03-06T12:32:53.970Z,5.29
2023-03-06T12:35:28.719Z,5.27
2023-03-06T12:38:32.542Z,5.19
2023-03-06T12:41:09.965Z,5.12
2023-03-06T12:43:58.954Z,5.22
2023-03-06T12:46:29.480Z,5.25
2023-03-06T12:49:31.831Z,5.16
2023-03-06T12:52:05.735Z,5.41
2023-03-06T12:54:39.072Z,5.34
2023-03-06T12:57:10.703Z,5.25
2023-03-06T12:59:49.344Z,5.25
2023-03-06T13:02:36.714Z,5.31
2023-03-06T13:05:33.855Z,5.42
2023-03-06T13:08:29.534Z,5.42
2023-03-06T13:11:20.007Z,5.39
2023-03-06T13:13:49.752Z,5.36
2023-03-06T13:16:32.169Z,5.33
2023-03-06T13:19:12.093Z,5.39
2023-03-06T13:22:02.419Z,5.04
2023-03-06T13:24:34.888Z,4.99
2023-03-06T13:27:08.715Z,4.83
2023-03-06T13:29:39.707Z,4.81
2023-03-06T13:32:18.239Z,4.58
2023-03-06T13:34:58.358Z,4.68
2023-03-06T13:37:26.658Z,4.84
2023-03-06T13:39:57.894Z,4.87
2023-03-06T13:42:30.581Z,4.82
2023-03-06T13:45:24.417Z,4.76
2023-03-06T13:50:48.720Z,4.65
2023-03-06T13:53:45.433Z,4.48
2023-03-06T13:56:43.898Z,4.16
2023-03-06T13:59:54.389Z,4.25
2023-03-06T14:02:48.058Z,4.38
2023-03-06T14:05:18.554Z,4.42
2023-03-06T14:07:48.350Z,4.44
2023-03-06T14:10:23.628Z,4.44
2023-03-06T14:12:51.137Z,4.67
2023-03-06T14:15:25.071Z,4.71
2023-03-06T14:17:58.836Z,4.62
2023-03-06T14:20:55.498Z,4.63
2023-03-06T14:23:29.500Z,4.47
2023-03-06T14:26:25.275Z,4.39
2023-03-06T14:29:01.640Z,4.21
2023-03-06T14:31:37.202Z,4.15
2023-03-06T14:34:14.906Z,3.94
2023-03-06T14:36:42.311Z,3.92
2023-03-06T14:39:22.345Z,3.73
2023-03-06T14:42:20.209Z,3.84
2023-03-06T14:45:01.816Z,3.80
2023-03-06T14:47:33.619Z,3.79
2023-03-06T14:50:25.811Z,3.84
2023-03-06T14:53:16.677Z,3.90
2023-03-06T14:55:54.875Z,3.85
2023-03-06T14:58:46.414Z,3.95
2023-03-06T15:01:17.762Z,4.03
2023-03-06T15:03:51.630Z,4.10
2023-03-06T15:06:25.555Z,4.19
2023-03-06T15:09:02.524Z,4.32
2023-03-06T15:12:11.391Z,4.29
2023-03-06T15:14:48.290Z,4.33
2023-03-06T15:17:18.793Z,4.27
2023-03-06T15:19:49.024Z,4.28
2023-03-06T15:22:34.231Z,4.43
2023-03-06T15:25:27.926Z,4.42
2023-03-06T15:27:59.585Z,4.35
2023-03-06T15:30:31.496Z,4.29
2023-03-06T15:33:25.035Z,4.29
2023-03-06T15:36:04.129Z,4.34
2023-03-06T15:38:45.080Z,4.21
2023-03-06T15:41:32.624Z,4.11
2023-03-06T15:44:09.057Z,4.00
2023-03-06T15:46:36.286Z,4.09
2023-03-06T15:49:05.033Z,4.09
2023-03-06T15:51:33.611Z,4.15
2023-03-06T15:54:11.967Z,4.05
2023-03-06T15:56:46.613Z,4.06
2023-03-06T15:59:25.146Z,3.99
2023-03-06T16:01:54.725Z,4.02
2023-03-06T16:04:22.145Z,4.04
2023-03-06T16:06:50.145Z,4.04
2023-03-06T16:09:18.082Z,4.14
2023-03-06T16:11:52.841Z,4.14
2023-03-06T16:14:24.156Z,3.92
2023-03-06T16:16:56.977Z,3.78
2023-03-06T16:19:27.352Z,3.72
2023-03-06T16:21:57.087Z,3.83
2023-03-06T16:24:26.624Z,3.78
2023-03-06T16:26:55.920Z,3.84
2023-03-06T16:29:27.737Z,3.76
2023-03-06T16:31:58.531Z,3.83
2023-03-06T16:34:26.140Z,3.79
2023-03-06T16:36:54.673Z,3.82
2023-03-06T16:39:29.641Z,3.83
2023-03-06T16:41:59.949Z,3.72
2023-03-06T16:44:30.164Z,3.73
2023-03-06T16:47:01.372Z,3.71
2023-03-06T16:49:29.108Z,3.68
2023-03-06T16:52:04.893Z,3.62
2023-03-06T16:54:32.397Z,3.62
2023-03-06T16:57:00.649Z,3.50
2023-03-06T16:59:29.343Z,3.55
2023-03-06T17:01:57.713Z,3.47
2023-03-06T17:04:25.631Z,3.56
2023-03-06T17:06:54.229Z,3.42
2023-03-06T17:09:24.436Z,3.53
2023-03-06T17:11:52.017Z,3.40
2023-03-06T17:14:22.395Z,3.26
2023-03-06T17:16:59.082Z,3.35
2023-03-06T17:19:26.164Z,3.28
2023-03-06T17:21:54.883Z,3.24
2023-03-06T17:24:23.481Z,3.30
2023-03-06T17:26:50.877Z,3.38
2023-03-06T17:29:26.468Z,3.23
2023-03-06T17:31:54.291Z,3.08
2023-03-06T17:34:24.554Z,3.05
2023-03-06T17:36:52.638Z,3.07
2023-03-06T17:39:23.650Z,3.10
2023-03-06T17:41:51.645Z,2.93
2023-03-06T17:44:20.099Z,3.11
2023-03-06T17:46:47.785Z,2.98
2023-03-06T17:49:20.235Z,2.95
2023-03-06T17:51:49.962Z,2.81
2023-03-06T17:54:17.908Z,2.80
2023-03-06T17:56:48.144Z,2.77
2023-03-06T17:59:16.061Z,2.68
2023-03-06T18:01:46.082Z,2.63
2023-03-06T18:04:14.533Z,2.69
2023-03-06T18:06:43.257Z,2.61
2023-03-06T18:09:12.151Z,2.55
2023-03-06T18:11:40.184Z,2.60
2023-03-06T18:14:10.215Z,2.52
2023-03-06T18:16:38.221Z,2.43
2023-03-06T18:19:09.347Z,2.52
2023-03-06T18:21:37.863Z,2.34
2023-03-06T18:24:06.144Z,2.34
2023-03-06T18:26:36.094Z,2.28
2023-03-06T18:29:05.471Z,2.33
2023-03-06T18:31:41.484Z,2.26
2023-03-06T18:34:18.348Z,2.24
2023-03-06T18:36:48.106Z,2.30
2023-03-06T18:39:16.537Z,2.35
2023-03-06T18:41:46.716Z,2.32
2023-03-06T18:44:16.734Z,2.29
2023-03-06T18:46:45.357Z,2.04
2023-03-06T18:49:27.866Z,1.99
2023-03-06T18:51:57.425Z,2.05
2023-03-06T18:54:29.613Z,1.80
2023-03-06T18:56:59.455Z,1.73
2023-03-06T18:59:28.006Z,1.85
2023-03-06T19:01:58.536Z,1.98
2023-03-06T19:04:29.655Z,1.86
2023-03-06T19:06:57.772Z,1.78
2023-03-06T19:09:27.394Z,1.70
2023-03-06T19:11:58.079Z,1.56
2023-03-06T19:14:26.105Z,1.62
2023-03-06T19:16:56.222Z,1.56
2023-03-06T19:19:32.011Z,1.60
2023-03-06T19:22:03.108Z,1.48
2023-03-06T19:24:34.553Z,1.39
2023-03-06T19:27:03.770Z,1.36
2023-03-06T19:29:33.268Z,1.22
2023-03-06T19:32:02.407Z,1.11
2023-03-06T19:34:34.087Z,1.00
2023-03-06T19:37:10.189Z,1.04
2023-03-06T19:39:38.536Z,0.99
2023-03-06T19:42:07.715Z,0.96
2023-03-06T19:44:36.306Z,0.80
2023-03-06T19:47:06.488Z,0.80
2023-03-06T19:49:41.449Z,0.93
2023-03-06T19:52:10.957Z,0.95
2023-03-06T19:54:39.449Z,1.03
2023-03-06T19:57:08.109Z,0.95
2023-03-06T19:59:36.887Z,0.89
2023-03-06T20:02:06.726Z,0.67
2023-03-06T20:04:39.729Z,0.85
2023-03-06T20:07:09.509Z,0.66
2023-03-06T20:09:45.168Z,0.55
2023-03-06T20:12:14.982Z,0.32
2023-03-06T20:14:44.550Z,0.38
2023-03-06T20:17:23.242Z,0.64
2023-03-06T20:19:51.522Z,0.73
2023-03-06T20:22:20.765Z,0.63
2023-03-06T20:24:48.862Z,0.52
2023-03-06T20:27:18.351Z,0.56
2023-03-06T20:29:46.666Z,0.58
2023-03-06T20:32:14.962Z,0.53
2023-03-06T20:34:43.738Z,0.31
2023-03-06T20:37:12.258Z,0.10
2023-03-06T20:39:47.525Z,0.36
2023-03-06T20:42:16.102Z,0.19
2023-03-06T20:44:44.233Z,0.02
2023-03-06T20:47:12.635Z,0.05
2023-03-06T20:49:42.117Z,0.27
2023-03-06T20:52:11.716Z,0.30
2023-03-06T20:54:47.233Z,0.15
2023-03-06T20:57:15.803Z,0.12
2023-03-06T20:59:45.797Z,0.05
2023-03-06T21:02:16.504Z,0.05
2023-03-06T21:04:44.161Z,0.01
2023-03-06T21:07:13.810Z,0.08
2023-03-06T21:09:41.972Z,0.33
2023-03-06T21:12:10.874Z,0.19
2023-03-06T21:14:38.434Z,0.17
2023-03-06T21:17:05.993Z,0.23
2023-03-06T21:19:34.705Z,0.34
2023-03-06T21:22:02.825Z,0.49
2023-03-06T21:24:30.188Z,0.42
2023-03-06T21:26:59.001Z,0.29
2023-03-06T21:29:26.314Z,0.40
2023-03-06T21:31:53.872Z,0.46
2023-03-06T21:34:21.504Z,0.61
2023-03-06T21:36:49.239Z,0.66
2023-03-06T21:39:17.815Z,0.45
2023-03-06T21:41:52.229Z,0.45
2023-03-06T21:44:20.044Z,0.57
2023-03-06T21:46:47.666Z,0.79
2023-03-06T21:49:15.038Z,0.50
2023-03-06T21:51:42.526Z,0.57
2023-03-06T21:54:16.186Z,0.40
2023-03-06T21:56:43.707Z,0.24
2023-03-06T21:59:11.113Z,0.14
2023-03-06T22:01:38.562Z,0.26
2023-03-06T22:04:05.829Z,0.29
2023-03-06T22:06:34.104Z,0.34
2023-03-06T22:09:01.951Z,0.51
2023-03-06T22:11:31.709Z,0.50
2023-03-06T22:13:59.478Z,0.42
2023-03-06T22:16:29.058Z,0.43
2023-03-06T22:18:56.458Z,0.51
2023-03-06T22:21:24.488Z,0.55
2023-03-06T22:23:57.782Z,0.49
2023-03-06T22:26:30.143Z,0.15
2023-03-06T22:28:58.633Z,0.17
2023-03-06T22:31:28.932Z,0.06
2023-03-06T22:34:00.592Z,0.01
2023-03-06T22:36:31.219Z,0.18
2023-03-06T22:39:00.708Z,0.40
2023-03-06T22:41:29.309Z,0.54
2023-03-06T22:44:00.986Z,0.52
2023-03-06T22:46:29.794Z,0.69
2023-03-06T22:49:01.501Z,0.78
2023-03-06T22:51:36.720Z,0.78
2023-03-06T22:54:07.741Z,0.60
2023-03-06T22:56:36.869Z,0.47
2023-03-06T22:59:04.737Z,0.34
2023-03-06T23:01:34.912Z,0.37
2023-03-06T23:04:04.701Z,0.23
2023-03-06T23:06:41.008Z,0.21
2023-03-06T23:09:22.846Z,0.18
2023-03-06T23:11:50.595Z,0.32
2023-03-06T23:14:19.814Z,0.33
2023-03-06T23:16:47.187Z,0.35
2023-03-06T23:19:15.744Z,0.49
2023-03-06T23:21:43.392Z,0.67
2023-03-06T23:24:10.671Z,0.70
2023-03-06T23:26:40.946Z,0.68
2023-03-06T23:29:08.575Z,0.62
2023-03-06T23:31:38.021Z,0.49
2023-03-06T23:34:06.384Z,0.42
2023-03-06T23:36:34.214Z,0.32
2023-03-06T23:39:01.471Z,0.41
2023-03-06T23:41:29.873Z,0.58
2023-03-06T23:43:58.702Z,0.69
2023-03-06T23:46:28.014Z,0.45
2023-03-06T23:48:55.418Z,0.51
2023-03-06T23:51:23.467Z,0.39
2023-03-06T23:53:58.588Z,0.32
2023-03-06T23:56:27.925Z,0.26
2023-03-06T23:58:56.591Z,0.32
